createdAt,value
2023-05-11T00:02:19.594Z,101027.63
2023-05-11T00:07:23.726Z,101034.91
2023-05-11T00:12:26.462Z,101037.84
2023-05-11T00:17:29.292Z,101035.72
2023-05-11T00:22:33.406Z,101037.06
2023-05-11T00:27:36.128Z,101040.47
2023-05-11T00:32:38.896Z,101036.38
2023-05-11T00:37:43.007Z,101030.44
2023-05-11T00:42:45.822Z,101034.31
2023-05-11T00:47:48.631Z,101035.09
2023-05-11T00:52:52.853Z,101034.25
2023-05-11T00:57:55.657Z,101035.53
2023-05-11T01:02:59.565Z,101038.00
2023-05-11T01:08:09.779Z,101038.25
2023-05-11T01:13:23.000Z,101046.56
2023-05-11T01:18:31.792Z,101043.59
2023-05-11T01:24:06.477Z,101040.22
2023-05-11T01:29:42.105Z,101050.06
2023-05-11T01:34:48.263Z,101046.91
2023-05-11T01:39:55.302Z,101047.16
2023-05-11T01:44:59.234Z,101045.66
2023-05-11T01:50:05.887Z,101050.19
2023-05-11T01:55:11.267Z,101059.34
2023-05-11T02:00:17.204Z,101062.78
2023-05-11T02:05:24.900Z,101070.84
2023-05-11T02:10:28.956Z,101072.66
2023-05-11T02:15:32.437Z,101076.81
2023-05-11T02:20:37.724Z,101087.78
2023-05-11T02:25:41.408Z,101077.84
2023-05-11T02:30:51.010Z,101084.38
2023-05-11T02:35:57.165Z,101091.09
2023-05-11T02:41:07.229Z,101089.28
2023-05-11T02:46:14.323Z,101088.59
2023-05-11T02:51:23.285Z,101084.91
2023-05-11T02:56:28.226Z,101088.03
2023-05-11T03:01:32.870Z,101091.06
2023-05-11T03:06:38.253Z,101095.00
2023-05-11T03:11:45.753Z,101090.69
2023-05-11T03:16:49.777Z,101094.56
2023-05-11T03:21:55.384Z,101089.78
2023-05-11T03:26:58.932Z,101088.16
2023-05-11T03:32:04.175Z,101086.41
2023-05-11T03:37:15.116Z,101087.63
2023-05-11T03:42:21.174Z,101086.38
2023-05-11T03:47:26.904Z,101083.28
2023-05-11T03:52:32.752Z,101079.34
2023-05-11T03:57:36.098Z,101076.50
2023-05-11T04:02:39.063Z,101081.84
2023-05-11T04:07:43.345Z,101082.56
2023-05-11T04:12:46.208Z,101078.63
2023-05-11T04:17:49.112Z,101086.44
2023-05-11T04:22:53.348Z,101083.25
2023-05-11T04:27:56.259Z,101080.28
2023-05-11T04:32:59.201Z,101094.66
2023-05-11T04:38:03.482Z,101092.19
2023-05-11T04:43:06.604Z,101091.50
2023-05-11T04:48:09.560Z,101094.50
2023-05-11T04:53:13.804Z,101094.75
2023-05-11T04:58:16.840Z,101096.81
2023-05-11T05:03:19.848Z,101101.97
2023-05-11T05:08:24.083Z,101103.75
2023-05-11T05:13:26.940Z,101102.16
2023-05-11T05:18:29.951Z,101112.28
2023-05-11T05:23:34.405Z,101106.94
2023-05-11T05:28:39.644Z,101113.94
2023-05-11T05:33:42.565Z,101112.41
2023-05-11T05:39:03.777Z,101114.06
2023-05-11T05:44:08.676Z,101126.25
2023-05-11T05:49:11.681Z,101125.63
2023-05-11T05:54:16.112Z,101133.81
2023-05-11T05:59:21.080Z,101134.50
2023-05-11T06:04:24.177Z,101138.03
2023-05-11T06:09:28.422Z,101143.63
2023-05-11T06:14:31.626Z,101145.75
2023-05-11T06:19:34.828Z,101144.06
2023-05-11T06:24:39.187Z,101148.00
2023-05-11T06:29:42.575Z,101148.97
2023-05-11T06:34:45.486Z,101142.28
2023-05-11T06:39:51.251Z,101156.94
2023-05-11T06:44:54.350Z,101149.84
2023-05-11T06:49:59.328Z,101159.22
2023-05-11T06:55:04.501Z,101149.97
2023-05-11T07:00:08.511Z,101157.72
2023-05-11T07:05:12.222Z,101155.34
2023-05-11T07:10:16.587Z,101157.69
2023-05-11T07:15:19.549Z,101157.66
2023-05-11T07:20:22.403Z,101163.81
2023-05-11T07:25:26.826Z,101154.38
2023-05-11T07:30:29.841Z,101162.03
2023-05-11T07:35:32.654Z,101166.13
2023-05-11T07:40:37.478Z,101156.75
2023-05-11T07:45:40.537Z,101151.69
2023-05-11T07:50:43.666Z,101163.81
2023-05-11T07:55:48.079Z,101169.41
2023-05-11T08:00:50.845Z,101167.13
2023-05-11T08:05:53.707Z,101176.31
2023-05-11T08:10:58.111Z,101175.03
2023-05-11T08:16:00.933Z,101178.66
2023-05-11T08:21:03.831Z,101176.50
2023-05-11T08:26:08.107Z,101180.47
2023-05-11T08:31:10.940Z,101178.03
2023-05-11T08:36:13.941Z,101177.59
2023-05-11T08:41:18.517Z,101180.78
2023-05-11T08:46:27.138Z,101171.34
2023-05-11T08:51:30.621Z,101177.06
2023-05-11T08:56:37.074Z,101184.47
2023-05-11T09:01:42.363Z,101186.22
2023-05-11T09:06:45.370Z,101180.84
2023-05-11T09:11:50.541Z,101187.22
2023-05-11T09:16:53.374Z,101195.59
2023-05-11T09:21:56.472Z,101185.81
2023-05-11T09:27:10.587Z,101190.16
2023-05-11T09:32:13.356Z,101197.97
2023-05-11T09:37:20.144Z,101194.63
2023-05-11T09:42:24.433Z,101204.16
2023-05-11T09:47:27.622Z,101204.94
2023-05-11T09:52:30.682Z,101197.78
2023-05-11T09:57:34.790Z,101207.81
2023-05-11T10:02:37.893Z,101205.56
2023-05-11T10:07:40.934Z,101202.09
2023-05-11T10:12:45.392Z,101199.03
2023-05-11T10:17:49.380Z,101205.09
2023-05-11T10:22:53.731Z,101200.13
2023-05-11T10:27:58.692Z,101198.91
2023-05-11T10:33:02.075Z,101187.50
2023-05-11T10:38:05.876Z,101191.88
2023-05-11T10:43:35.829Z,101182.13
2023-05-11T10:49:04.095Z,101188.31
2023-05-11T10:54:30.909Z,101191.81
2023-05-11T11:00:14.258Z,101190.13
2023-05-11T11:05:34.195Z,101190.28
2023-05-11T11:10:39.271Z,101179.13
2023-05-11T11:16:13.911Z,101184.09
2023-05-11T11:21:43.247Z,101180.56
2023-05-11T11:26:50.603Z,101186.63
2023-05-11T11:31:54.899Z,101188.13
2023-05-11T11:37:04.987Z,101191.84
2023-05-11T11:42:09.341Z,101192.16
2023-05-11T11:47:14.652Z,101195.94
2023-05-11T11:52:34.504Z,101193.78
2023-05-11T11:57:44.155Z,101179.94
2023-05-11T12:02:48.414Z,101183.81
2023-05-11T12:07:52.596Z,101194.41
2023-05-11T12:12:59.226Z,101187.66
2023-05-11T12:18:04.143Z,101181.78
2023-05-11T12:23:07.063Z,101178.38
2023-05-11T12:28:12.428Z,101177.09
2023-05-11T12:33:20.281Z,101172.94
2023-05-11T12:38:23.590Z,101172.75
2023-05-11T12:43:26.666Z,101175.53
2023-05-11T12:48:32.979Z,101171.06
2023-05-11T12:53:38.056Z,101173.91
2023-05-11T12:58:44.066Z,101168.97
2023-05-11T13:03:49.264Z,101167.09
2023-05-11T13:08:52.440Z,101161.25
2023-05-11T13:13:57.048Z,101161.13
2023-05-11T13:19:02.599Z,101146.56
2023-05-11T13:24:06.211Z,101144.84
2023-05-11T13:29:11.560Z,101140.25
2023-05-11T13:34:16.474Z,101128.50
2023-05-11T13:39:19.524Z,101119.81
2023-05-11T13:44:22.272Z,101130.09
2023-05-11T13:49:27.472Z,101124.25
2023-05-11T13:54:31.764Z,101120.78
2023-05-11T13:59:34.920Z,101102.81
2023-05-11T14:04:39.977Z,101099.06
2023-05-11T14:09:43.720Z,101097.78
2023-05-11T14:14:46.563Z,101101.09
2023-05-11T14:19:50.681Z,101108.41
2023-05-11T14:24:53.390Z,101112.94
2023-05-11T14:29:56.186Z,101105.38
2023-05-11T14:35:00.532Z,101100.00
2023-05-11T14:40:03.522Z,101107.84
2023-05-11T14:45:07.723Z,101094.72
2023-05-11T14:50:12.337Z,101099.19
2023-05-11T14:55:15.102Z,101092.50
2023-05-11T15:00:18.807Z,101094.38
2023-05-11T15:05:22.942Z,101084.97
2023-05-11T15:10:25.855Z,101081.00
2023-05-11T15:15:28.834Z,101075.91
2023-05-11T15:20:34.595Z,101079.53
2023-05-11T15:25:37.828Z,101073.56
2023-05-11T15:30:41.605Z,101087.22
2023-05-11T15:35:45.809Z,101080.13
2023-05-11T15:40:48.764Z,101088.66
2023-05-11T15:45:51.834Z,101082.53
2023-05-11T15:50:56.116Z,101074.41
2023-05-11T15:55:59.035Z,101082.69
2023-05-11T16:01:02.076Z,101101.22
2023-05-11T16:06:07.243Z,101092.19
2023-05-11T16:11:10.088Z,101086.19
2023-05-11T16:16:13.293Z,101091.50
2023-05-11T16:21:17.564Z,101090.31
2023-05-11T16:26:20.447Z,101089.72
2023-05-11T16:31:23.793Z,101091.28
2023-05-11T16:36:29.428Z,101085.06
2023-05-11T16:41:32.457Z,101090.66
2023-05-11T16:46:35.366Z,101077.72
2023-05-11T16:51:41.608Z,101081.06
2023-05-11T16:56:44.550Z,101083.88
2023-05-11T17:01:47.535Z,101088.34
2023-05-11T17:06:52.157Z,101096.31
2023-05-11T17:11:57.381Z,101100.28
2023-05-11T17:17:00.257Z,101107.56
2023-05-11T17:22:04.681Z,101097.78
2023-05-11T17:27:07.567Z,101083.19
2023-05-11T17:32:10.524Z,101085.00
2023-05-11T17:37:30.606Z,101078.72
2023-05-11T17:42:35.733Z,101080.41
2023-05-11T17:47:38.729Z,101087.75
2023-05-11T17:52:45.310Z,101082.38
2023-05-11T17:57:48.456Z,101093.03
2023-05-11T18:02:51.533Z,101095.34
2023-05-11T18:07:56.274Z,101097.53
2023-05-11T18:13:01.678Z,101094.91
2023-05-11T18:18:04.629Z,101085.75
2023-05-11T18:23:08.831Z,101088.31
2023-05-11T18:28:11.693Z,101092.44
2023-05-11T18:33:14.561Z,101094.56
2023-05-11T18:38:19.237Z,101107.78
2023-05-11T18:43:22.117Z,101104.50
2023-05-11T18:48:24.964Z,101110.31
2023-05-11T18:53:29.434Z,101120.22
2023-05-11T18:58:32.306Z,101120.88
2023-05-11T19:03:36.146Z,101143.53
2023-05-11T19:08:40.382Z,101134.47
2023-05-11T19:13:43.874Z,101141.91
2023-05-11T19:18:46.662Z,101153.56
2023-05-11T19:23:50.994Z,101165.41
2023-05-11T19:28:53.833Z,101169.38
2023-05-11T19:33:56.628Z,101172.50
2023-05-11T19:39:00.807Z,101173.84
2023-05-11T19:44:03.761Z,101184.47
2023-05-11T19:49:06.640Z,101182.03
2023-05-11T19:54:11.395Z,101188.44
2023-05-11T19:59:20.569Z,101181.84
2023-05-11T20:04:31.223Z,101186.56
2023-05-11T20:09:38.070Z,101189.59
2023-05-11T20:14:42.292Z,101198.63
2023-05-11T20:19:45.163Z,101204.41
2023-05-11T20:24:49.430Z,101196.28
2023-05-11T20:29:54.729Z,101207.53
2023-05-11T20:34:57.595Z,101213.25
2023-05-11T20:40:02.146Z,101214.06
2023-05-11T20:45:07.361Z,101223.53
2023-05-11T20:50:10.921Z,101224.09
2023-05-11T20:55:16.025Z,101228.13
2023-05-11T21:00:19.039Z,101236.22
2023-05-11T21:05:23.558Z,101229.66
2023-05-11T21:10:29.671Z,101237.22
2023-05-11T21:15:32.543Z,101237.38
2023-05-11T21:20:35.285Z,101272.53
2023-05-11T21:25:39.414Z,101259.03
2023-05-11T21:30:42.347Z,101267.78
2023-05-11T21:35:45.244Z,101279.22
2023-05-11T21:40:53.108Z,101278.81
2023-05-11T21:45:56.045Z,101284.06
2023-05-11T21:50:58.832Z,101284.22
2023-05-11T21:56:02.970Z,101280.34
2023-05-11T22:01:05.895Z,101290.00
2023-05-11T22:06:08.970Z,101288.19
2023-05-11T22:11:13.108Z,101292.63
2023-05-11T22:16:16.227Z,101296.03
2023-05-11T22:21:19.010Z,101299.59
2023-05-11T22:26:23.133Z,101306.06
2023-05-11T22:31:26.779Z,101302.63
2023-05-11T22:36:29.688Z,101298.59
2023-05-11T22:41:33.921Z,101312.09
2023-05-11T22:46:36.685Z,101315.19
2023-05-11T22:51:39.470Z,101320.56
2023-05-11T22:56:44.102Z,101332.00
2023-05-11T23:01:47.389Z,101326.78
2023-05-11T23:06:50.363Z,101319.53
2023-05-11T23:11:54.639Z,101317.38
2023-05-11T23:16:57.475Z,101322.47
2023-05-11T23:22:00.236Z,101323.28
2023-05-11T23:27:04.752Z,101320.44
2023-05-11T23:32:08.674Z,101323.81
2023-05-11T23:37:11.563Z,101326.91
2023-05-11T23:42:15.727Z,101330.84
2023-05-11T23:47:18.539Z,101336.56
2023-05-11T23:52:21.841Z,101334.59
2023-05-11T23:57:26.122Z,101324.78
